sensor_id;sensor_type;location;lat;lon;timestamp;pressure;altitude;pressure_sealevel;temperature;humidity
75008;BME280;63554;48.940;12.050;2023-06-24T00:02:29;98196.81;;;14.69;81.80
75008;BME280;63554;48.940;12.050;2023-06-24T00:06:31;98207.72;;;14.69;82.38
75008;BME280;63554;48.940;12.050;2023-06-24T00:10:34;98200.59;;;14.68;82.60
75008;BME280;63554;48.940;12.050;2023-06-24T00:14:37;98195.22;;;14.61;82.95
75008;BME280;63554;48.940;12.050;2023-06-24T00:18:42;98192.50;;;14.61;82.98
75008;BME280;63554;48.940;12.050;2023-06-24T00:22:45;98195.44;;;14.59;83.73
75008;BME280;63554;48.940;12.050;2023-06-24T00:26:50;98202.09;;;14.63;83.88
75008;BME280;63554;48.940;12.050;2023-06-24T00:30:52;98189.31;;;14.64;83.59
75008;BME280;63554;48.940;12.050;2023-06-24T00:34:57;98186.56;;;14.64;83.58
75008;BME280;63554;48.940;12.050;2023-06-24T00:39:02;98192.03;;;14.64;83.93
75008;BME280;63554;48.940;12.050;2023-06-24T00:43:05;98195.22;;;14.61;83.81
75008;BME280;63554;48.940;12.050;2023-06-24T00:47:09;98192.28;;;14.56;84.99
75008;BME280;63554;48.940;12.050;2023-06-24T00:51:13;98188.13;;;14.53;84.81
75008;BME280;63554;48.940;12.050;2023-06-24T00:55:17;98184.81;;;14.51;84.85
75008;BME280;63554;48.940;12.050;2023-06-24T00:59:22;98177.06;;;14.48;84.82
75008;BME280;63554;48.940;12.050;2023-06-24T01:03:26;98182.28;;;14.50;84.81
75008;BME280;63554;48.940;12.050;2023-06-24T01:07:31;98178.13;;;14.47;84.97
75008;BME280;63554;48.940;12.050;2023-06-24T01:11:34;98181.69;;;14.48;85.40
75008;BME280;63554;48.940;12.050;2023-06-24T01:15:37;98182.75;;;14.47;85.51
75008;BME280;63554;48.940;12.050;2023-06-24T01:20:02;98181.28;;;14.44;85.43
75008;BME280;63554;48.940;12.050;2023-06-24T01:24:31;98172.31;;;14.43;85.52
75008;BME280;63554;48.940;12.050;2023-06-24T01:29:12;98160.81;;;14.41;85.67
75008;BME280;63554;48.940;12.050;2023-06-24T01:33:23;98147.41;;;14.40;85.75
75008;BME280;63554;48.940;12.050;2023-06-24T01:37:35;98151.56;;;14.42;85.97
75008;BME280;63554;48.940;12.050;2023-06-24T01:41:41;98150.28;;;14.45;85.72
75008;BME280;63554;48.940;12.050;2023-06-24T01:45:48;98149.69;;;14.43;85.97
75008;BME280;63554;48.940;12.050;2023-06-24T01:49:54;98158.47;;;14.45;86.15
75008;BME280;63554;48.940;12.050;2023-06-24T01:54:05;98148.63;;;14.44;85.97
75008;BME280;63554;48.940;12.050;2023-06-24T01:58:11;98147.19;;;14.41;86.26
75008;BME280;63554;48.940;12.050;2023-06-24T02:02:15;98153.66;;;14.40;86.49
75008;BME280;63554;48.940;12.050;2023-06-24T02:06:23;98147.88;;;14.37;86.55
75008;BME280;63554;48.940;12.050;2023-06-24T02:10:27;98143.69;;;14.34;86.28
75008;BME280;63554;48.940;12.050;2023-06-24T02:14:30;98142.84;;;14.34;86.77
75008;BME280;63554;48.940;12.050;2023-06-24T02:18:35;98145.75;;;14.39;86.49
75008;BME280;63554;48.940;12.050;2023-06-24T02:22:41;98145.28;;;14.42;86.94
75008;BME280;63554;48.940;12.050;2023-06-24T02:26:44;98141.06;;;14.46;87.03
75008;BME280;63554;48.940;12.050;2023-06-24T02:30:48;98139.41;;;14.45;86.74
75008;BME280;63554;48.940;12.050;2023-06-24T02:34:51;98146.75;;;14.44;86.54
75008;BME280;63554;48.940;12.050;2023-06-24T02:38:55;98143.38;;;14.42;86.76
75008;BME280;63554;48.940;12.050;2023-06-24T02:42:59;98153.44;;;14.42;86.96
75008;BME280;63554;48.940;12.050;2023-06-24T02:47:04;98157.84;;;14.43;86.84
75008;BME280;63554;48.940;12.050;2023-06-24T02:51:08;98161.41;;;14.43;86.89
75008;BME280;63554;48.940;12.050;2023-06-24T02:55:14;98156.88;;;14.37;86.76
75008;BME280;63554;48.940;12.050;2023-06-24T02:59:17;98160.88;;;14.35;86.87
75008;BME280;63554;48.940;12.050;2023-06-24T03:03:23;98162.75;;;14.34;87.31
75008;BME280;63554;48.940;12.050;2023-06-24T03:07:27;98176.16;;;14.36;87.01
75008;BME280;63554;48.940;12.050;2023-06-24T03:11:31;98179.69;;;14.36;87.23
75008;BME280;63554;48.940;12.050;2023-06-24T03:15:34;98186.34;;;14.40;87.17
75008;BME280;63554;48.940;12.050;2023-06-24T03:19:37;98193.47;;;14.41;87.06
75008;BME280;63554;48.940;12.050;2023-06-24T03:23:40;98201.38;;;14.50;86.97
75008;BME280;63554;48.940;12.050;2023-06-24T03:27:44;98202.19;;;14.50;86.58
75008;BME280;63554;48.940;12.050;2023-06-24T03:31:46;98213.47;;;14.54;86.44
75008;BME280;63554;48.940;12.050;2023-06-24T03:35:49;98225.44;;;14.53;86.34
75008;BME280;63554;48.940;12.050;2023-06-24T03:39:52;98217.31;;;14.46;86.50
75008;BME280;63554;48.940;12.050;2023-06-24T03:43:56;98223.22;;;14.43;87.04
75008;BME280;63554;48.940;12.050;2023-06-24T03:47:59;98238.97;;;14.41;87.34
75008;BME280;63554;48.940;12.050;2023-06-24T03:52:02;98225.34;;;14.41;87.39
75008;BME280;63554;48.940;12.050;2023-06-24T03:56:07;98237.28;;;14.40;87.25
75008;BME280;63554;48.940;12.050;2023-06-24T04:00:12;98230.31;;;14.44;87.34
75008;BME280;63554;48.940;12.050;2023-06-24T04:04:18;98231.53;;;14.48;87.37
75008;BME280;63554;48.940;12.050;2023-06-24T04:08:20;98239.28;;;14.51;87.39
75008;BME280;63554;48.940;12.050;2023-06-24T04:12:23;98239.47;;;14.56;87.51
75008;BME280;63554;48.940;12.050;2023-06-24T04:16:27;98242.97;;;14.63;86.83
75008;BME280;63554;48.940;12.050;2023-06-24T04:20:30;98242.97;;;14.63;87.08
75008;BME280;63554;48.940;12.050;2023-06-24T04:24:34;98244.25;;;14.61;87.10
75008;BME280;63554;48.940;12.050;2023-06-24T04:28:37;98242.34;;;14.61;86.93
75008;BME280;63554;48.940;12.050;2023-06-24T04:32:41;98246.75;;;14.62;87.13
75008;BME280;63554;48.940;12.050;2023-06-24T04:36:44;98248.63;;;14.62;87.50
75008;BME280;63554;48.940;12.050;2023-06-24T04:40:46;98258.66;;;14.68;87.56
75008;BME280;63554;48.940;12.050;2023-06-24T04:44:49;98262.81;;;14.71;87.42
75008;BME280;63554;48.940;12.050;2023-06-24T04:48:54;98271.13;;;14.76;87.27
75008;BME280;63554;48.940;12.050;2023-06-24T04:52:57;98261.91;;;14.77;87.60
75008;BME280;63554;48.940;12.050;2023-06-24T04:56:59;98275.53;;;14.77;87.08
75008;BME280;63554;48.940;12.050;2023-06-24T05:01:02;98266.97;;;14.73;87.36
75008;BME280;63554;48.940;12.050;2023-06-24T05:05:07;98263.63;;;14.71;87.14
75008;BME280;63554;48.940;12.050;2023-06-24T05:09:10;98268.41;;;14.76;87.32
75008;BME280;63554;48.940;12.050;2023-06-24T05:13:15;98267.69;;;14.87;87.07
75008;BME280;63554;48.940;12.050;2023-06-24T05:17:17;98276.25;;;14.91;86.51
75008;BME280;63554;48.940;12.050;2023-06-24T05:21:22;98270.09;;;14.95;86.91
75008;BME280;63554;48.940;12.050;2023-06-24T05:25:24;98270.06;;;15.02;85.57
75008;BME280;63554;48.940;12.050;2023-06-24T05:29:27;98277.50;;;15.13;85.46
75008;BME280;63554;48.940;12.050;2023-06-24T05:33:30;98279.53;;;15.18;84.97
75008;BME280;63554;48.940;12.050;2023-06-24T05:37:34;98273.38;;;15.22;85.66
75008;BME280;63554;48.940;12.050;2023-06-24T05:41:37;98282.03;;;15.38;84.52
75008;BME280;63554;48.940;12.050;2023-06-24T05:45:40;98275.81;;;15.49;83.39
75008;BME280;63554;48.940;12.050;2023-06-24T05:49:43;98285.22;;;15.53;82.22
75008;BME280;63554;48.940;12.050;2023-06-24T05:53:47;98287.41;;;15.63;81.80
75008;BME280;63554;48.940;12.050;2023-06-24T05:57:49;98288.09;;;15.77;82.47
75008;BME280;63554;48.940;12.050;2023-06-24T06:01:52;98291.63;;;15.96;81.23
75008;BME280;63554;48.940;12.050;2023-06-24T06:05:55;98295.56;;;16.00;80.70
75008;BME280;63554;48.940;12.050;2023-06-24T06:09:59;98296.59;;;15.99;80.25
75008;BME280;63554;48.940;12.050;2023-06-24T06:14:02;98303.03;;;16.05;81.10
75008;BME280;63554;48.940;12.050;2023-06-24T06:18:05;98296.53;;;16.06;80.25
75008;BME280;63554;48.940;12.050;2023-06-24T06:22:07;98302.84;;;16.18;80.02
75008;BME280;63554;48.940;12.050;2023-06-24T06:26:11;98291.38;;;16.28;79.91
75008;BME280;63554;48.940;12.050;2023-06-24T06:30:14;98293.19;;;16.46;78.77
75008;BME280;63554;48.940;12.050;2023-06-24T06:34:17;98289.06;;;16.67;78.11
75008;BME280;63554;48.940;12.050;2023-06-24T06:38:20;98297.88;;;16.80;76.87
75008;BME280;63554;48.940;12.050;2023-06-24T06:42:24;98297.03;;;16.68;76.86
75008;BME280;63554;48.940;12.050;2023-06-24T06:46:27;98289.44;;;16.70;76.10
75008;BME280;63554;48.940;12.050;2023-06-24T06:50:30;98279.00;;;16.91;76.13
75008;BME280;63554;48.940;12.050;2023-06-24T06:54:33;98282.69;;;17.08;74.17
75008;BME280;63554;48.940;12.050;2023-06-24T06:58:37;98280.91;;;17.14;72.55
75008;BME280;63554;48.940;12.050;2023-06-24T07:02:39;98279.81;;;17.15;73.68
75008;BME280;63554;48.940;12.050;2023-06-24T07:06:42;98289.28;;;17.48;73.24
75008;BME280;63554;48.940;12.050;2023-06-24T07:10:45;98283.03;;;17.76;70.24
75008;BME280;63554;48.940;12.050;2023-06-24T07:14:50;98291.50;;;17.86;68.61
75008;BME280;63554;48.940;12.050;2023-06-24T07:18:52;98293.09;;;17.99;69.04
75008;BME280;63554;48.940;12.050;2023-06-24T07:22:55;98287.25;;;18.07;67.11
75008;BME280;63554;48.940;12.050;2023-06-24T07:26:58;98295.59;;;18.29;67.55
75008;BME280;63554;48.940;12.050;2023-06-24T07:31:02;98283.47;;;18.42;67.22
75008;BME280;63554;48.940;12.050;2023-06-24T07:35:06;98278.16;;;18.69;66.26
75008;BME280;63554;48.940;12.050;2023-06-24T07:39:08;98279.03;;;18.87;64.70
75008;BME280;63554;48.940;12.050;2023-06-24T07:43:11;98284.31;;;19.10;65.39
75008;BME280;63554;48.940;12.050;2023-06-24T07:47:16;98274.50;;;19.14;65.27
75008;BME280;63554;48.940;12.050;2023-06-24T07:51:19;98278.66;;;19.17;63.31
75008;BME280;63554;48.940;12.050;2023-06-24T07:55:22;98270.00;;;19.47;63.56
75008;BME280;63554;48.940;12.050;2023-06-24T07:59:25;98279.47;;;19.79;62.31
75008;BME280;63554;48.940;12.050;2023-06-24T08:03:29;98271.78;;;20.03;61.67
75008;BME280;63554;48.940;12.050;2023-06-24T08:07:32;98271.66;;;19.92;61.49
75008;BME280;63554;48.940;12.050;2023-06-24T08:11:35;98278.66;;;19.78;60.30
75008;BME280;63554;48.940;12.050;2023-06-24T08:15:37;98273.44;;;20.04;61.88
75008;BME280;63554;48.940;12.050;2023-06-24T08:19:44;98267.09;;;19.76;60.93
75008;BME280;63554;48.940;12.050;2023-06-24T08:23:47;98258.09;;;20.08;60.58
75008;BME280;63554;48.940;12.050;2023-06-24T08:27:51;98270.22;;;20.39;59.14
75008;BME280;63554;48.940;12.050;2023-06-24T08:31:54;98266.69;;;19.89;60.28
75008;BME280;63554;48.940;12.050;2023-06-24T08:35:58;98267.66;;;19.78;60.96
75008;BME280;63554;48.940;12.050;2023-06-24T08:40:02;98264.00;;;19.94;60.61
75008;BME280;63554;48.940;12.050;2023-06-24T08:44:06;98259.47;;;19.83;60.94
75008;BME280;63554;48.940;12.050;2023-06-24T08:48:10;98258.25;;;20.55;58.28
75008;BME280;63554;48.940;12.050;2023-06-24T08:52:17;98262.47;;;21.01;57.36
75008;BME280;63554;48.940;12.050;2023-06-24T08:56:20;98258.88;;;21.43;57.17
75008;BME280;63554;48.940;12.050;2023-06-24T09:00:23;98255.72;;;20.81;55.94
75008;BME280;63554;48.940;12.050;2023-06-24T09:04:26;98252.91;;;20.39;56.93
75008;BME280;63554;48.940;12.050;2023-06-24T09:08:31;98260.69;;;20.79;55.63
75008;BME280;63554;48.940;12.050;2023-06-24T09:12:34;98254.22;;;21.01;53.14
75008;BME280;63554;48.940;12.050;2023-06-24T09:16:37;98260.72;;;21.32;53.04
75008;BME280;63554;48.940;12.050;2023-06-24T09:20:42;98253.22;;;21.65;51.84
75008;BME280;63554;48.940;12.050;2023-06-24T09:24:48;98242.78;;;21.72;50.98
75008;BME280;63554;48.940;12.050;2023-06-24T09:28:51;98252.28;;;20.96;52.30
75008;BME280;63554;48.940;12.050;2023-06-24T09:32:54;98246.75;;;20.59;52.67
75008;BME280;63554;48.940;12.050;2023-06-24T09:36:58;98242.25;;;20.47;53.03
75008;BME280;63554;48.940;12.050;2023-06-24T09:41:03;98243.09;;;21.28;51.88
75008;BME280;63554;48.940;12.050;2023-06-24T09:45:14;98243.97;;;22.02;49.92
75008;BME280;63554;48.940;12.050;2023-06-24T09:49:18;98229.69;;;22.66;45.95
75008;BME280;63554;48.940;12.050;2023-06-24T09:53:21;98226.94;;;22.61;46.41
75008;BME280;63554;48.940;12.050;2023-06-24T09:57:29;98221.13;;;22.94;46.29
75008;BME280;63554;48.940;12.050;2023-06-24T10:01:32;98224.44;;;22.60;45.67
75008;BME280;63554;48.940;12.050;2023-06-24T10:05:35;98221.34;;;22.00;46.98
75008;BME280;63554;48.940;12.050;2023-06-24T10:09:38;98219.72;;;22.96;46.21
75008;BME280;63554;48.940;12.050;2023-06-24T10:13:43;98206.09;;;23.30;43.07
75008;BME280;63554;48.940;12.050;2023-06-24T10:17:46;98194.38;;;24.14;43.04
75008;BME280;63554;48.940;12.050;2023-06-24T10:21:51;98199.97;;;24.78;42.76
75008;BME280;63554;48.940;12.050;2023-06-24T10:25:54;98190.63;;;24.69;41.35
75008;BME280;63554;48.940;12.050;2023-06-24T10:30:03;98199.44;;;23.47;43.77
75008;BME280;63554;48.940;12.050;2023-06-24T10:34:20;98188.81;;;23.80;40.91
75008;BME280;63554;48.940;12.050;2023-06-24T10:38:23;98183.34;;;24.43;40.41
75008;BME280;63554;48.940;12.050;2023-06-24T10:42:26;98177.13;;;24.62;40.52
75008;BME280;63554;48.940;12.050;2023-06-24T10:46:32;98178.47;;;24.94;41.76
75008;BME280;63554;48.940;12.050;2023-06-24T10:50:35;98171.78;;;24.02;40.20
75008;BME280;63554;48.940;12.050;2023-06-24T10:54:39;98162.28;;;22.93;42.22
75008;BME280;63554;48.940;12.050;2023-06-24T10:58:54;98151.03;;;22.64;41.82
75008;BME280;63554;48.940;12.050;2023-06-24T11:03:07;98144.44;;;23.95;42.95
75008;BME280;63554;48.940;12.050;2023-06-24T11:07:10;98136.25;;;25.31;40.16
75008;BME280;63554;48.940;12.050;2023-06-24T11:11:20;98142.25;;;25.57;37.49
75008;BME280;63554;48.940;12.050;2023-06-24T11:15:24;98133.78;;;25.87;37.53
75008;BME280;63554;48.940;12.050;2023-06-24T11:19:29;98130.81;;;26.02;34.89
75008;BME280;63554;48.940;12.050;2023-06-24T11:23:32;98128.69;;;25.56;34.82
75008;BME280;63554;48.940;12.050;2023-06-24T11:27:35;98130.34;;;26.14;38.69
75008;BME280;63554;48.940;12.050;2023-06-24T11:31:38;98119.03;;;26.43;34.89
75008;BME280;63554;48.940;12.050;2023-06-24T11:35:42;98109.25;;;26.46;34.28
75008;BME280;63554;48.940;12.050;2023-06-24T11:40:00;98101.59;;;26.23;34.11
75008;BME280;63554;48.940;12.050;2023-06-24T11:44:05;98095.06;;;26.94;34.45
75008;BME280;63554;48.940;12.050;2023-06-24T11:48:07;98090.53;;;26.84;37.03
75008;BME280;63554;48.940;12.050;2023-06-24T11:52:11;98088.50;;;27.54;34.98
75008;BME280;63554;48.940;12.050;2023-06-24T11:56:15;98086.38;;;27.73;33.07
75008;BME280;63554;48.940;12.050;2023-06-24T12:00:22;98079.50;;;26.79;32.58
75008;BME280;63554;48.940;12.050;2023-06-24T12:04:27;98067.16;;;27.40;31.55
75008;BME280;63554;48.940;12.050;2023-06-24T12:08:32;98075.19;;;27.28;31.09
75008;BME280;63554;48.940;12.050;2023-06-24T12:12:52;98063.47;;;27.54;32.78
75008;BME280;63554;48.940;12.050;2023-06-24T12:16:55;98071.38;;;26.96;31.87
75008;BME280;63554;48.940;12.050;2023-06-24T12:20:57;98056.16;;;26.80;32.46
75008;BME280;63554;48.940;12.050;2023-06-24T12:25:01;98058.72;;;26.90;31.33
75008;BME280;63554;48.940;12.050;2023-06-24T12:29:04;98050.88;;;27.34;33.18
75008;BME280;63554;48.940;12.050;2023-06-24T12:33:07;98053.66;;;27.34;33.93
75008;BME280;63554;48.940;12.050;2023-06-24T12:37:10;98049.50;;;27.45;32.86
75008;BME280;63554;48.940;12.050;2023-06-24T12:41:14;98036.69;;;26.38;34.53
75008;BME280;63554;48.940;12.050;2023-06-24T12:45:17;98043.38;;;25.53;35.43
75008;BME280;63554;48.940;12.050;2023-06-24T12:49:20;98036.13;;;25.14;35.09
75008;BME280;63554;48.940;12.050;2023-06-24T12:53:23;98036.41;;;27.09;36.28
75008;BME280;63554;48.940;12.050;2023-06-24T12:57:27;98030.69;;;27.28;31.05
75008;BME280;63554;48.940;12.050;2023-06-24T13:01:29;98036.88;;;27.39;32.37
75008;BME280;63554;48.940;12.050;2023-06-24T13:05:32;98023.81;;;27.12;31.86
75008;BME280;63554;48.940;12.050;2023-06-24T13:09:35;98029.25;;;26.34;35.41
75008;BME280;63554;48.940;12.050;2023-06-24T13:13:39;98027.13;;;27.00;33.64
75008;BME280;63554;48.940;12.050;2023-06-24T13:17:42;98022.94;;;26.14;33.57
75008;BME280;63554;48.940;12.050;2023-06-24T13:21:45;98025.97;;;25.66;32.82
75008;BME280;63554;48.940;12.050;2023-06-24T13:25:47;98017.97;;;26.58;31.86
75008;BME280;63554;48.940;12.050;2023-06-24T13:29:51;98010.13;;;27.29;30.91
75008;BME280;63554;48.940;12.050;2023-06-24T13:33:54;98011.88;;;27.84;32.18
75008;BME280;63554;48.940;12.050;2023-06-24T13:37:57;98006.41;;;28.55;30.10
75008;BME280;63554;48.940;12.050;2023-06-24T13:42:00;98003.56;;;27.11;32.94
75008;BME280;63554;48.940;12.050;2023-06-24T13:46:04;98001.28;;;26.44;34.70
75008;BME280;63554;48.940;12.050;2023-06-24T13:50:07;98007.94;;;26.01;34.10
75008;BME280;63554;48.940;12.050;2023-06-24T13:54:10;98005.38;;;25.53;35.90
75008;BME280;63554;48.940;12.050;2023-06-24T13:58:13;97991.59;;;27.25;34.46
75008;BME280;63554;48.940;12.050;2023-06-24T14:02:17;97993.91;;;26.81;33.96
75008;BME280;63554;48.940;12.050;2023-06-24T14:06:22;97994.94;;;26.30;33.64
75008;BME280;63554;48.940;12.050;2023-06-24T14:10:25;97984.44;;;25.80;34.81
75008;BME280;63554;48.940;12.050;2023-06-24T14:14:28;97982.44;;;27.24;35.87
75008;BME280;63554;48.940;12.050;2023-06-24T14:18:33;97972.91;;;28.07;31.48
75008;BME280;63554;48.940;12.050;2023-06-24T14:22:36;97960.72;;;28.25;28.92
75008;BME280;63554;48.940;12.050;2023-06-24T14:26:39;97963.94;;;27.42;30.86
75008;BME280;63554;48.940;12.050;2023-06-24T14:30:41;97962.00;;;25.95;34.29
75008;BME280;63554;48.940;12.050;2023-06-24T14:34:45;97966.16;;;25.60;35.35
75008;BME280;63554;48.940;12.050;2023-06-24T14:38:48;97952.34;;;26.48;35.37
75008;BME280;63554;48.940;12.050;2023-06-24T14:42:51;97955.59;;;27.65;33.70
75008;BME280;63554;48.940;12.050;2023-06-24T14:46:54;97961.41;;;26.40;32.95
75008;BME280;63554;48.940;12.050;2023-06-24T14:50:59;97949.31;;;25.89;34.70
75008;BME280;63554;48.940;12.050;2023-06-24T14:55:01;97940.97;;;27.14;31.52
75008;BME280;63554;48.940;12.050;2023-06-24T14:59:04;97940.91;;;26.91;31.89
75008;BME280;63554;48.940;12.050;2023-06-24T15:03:07;97941.66;;;27.19;29.97
75008;BME280;63554;48.940;12.050;2023-06-24T15:07:12;97930.03;;;27.17;29.82
75008;BME280;63554;48.940;12.050;2023-06-24T15:11:14;97926.25;;;26.63;31.57
75008;BME280;63554;48.940;12.050;2023-06-24T15:15:17;97927.38;;;26.76;31.84
75008;BME280;63554;48.940;12.050;2023-06-24T15:19:20;97927.91;;;26.36;32.42
75008;BME280;63554;48.940;12.050;2023-06-24T15:23:24;97921.00;;;25.92;33.29
75008;BME280;63554;48.940;12.050;2023-06-24T15:27:28;97924.69;;;25.88;33.81
75008;BME280;63554;48.940;12.050;2023-06-24T15:31:30;97913.47;;;26.90;32.31
75008;BME280;63554;48.940;12.050;2023-06-24T15:35:33;97915.63;;;27.29;30.57
75008;BME280;63554;48.940;12.050;2023-06-24T15:39:40;97915.91;;;27.05;30.08
75008;BME280;63554;48.940;12.050;2023-06-24T15:43:43;97914.28;;;27.27;30.96
75008;BME280;63554;48.940;12.050;2023-06-24T15:47:46;97916.91;;;27.99;31.89
75008;BME280;63554;48.940;12.050;2023-06-24T15:51:50;97914.28;;;28.03;30.90
75008;BME280;63554;48.940;12.050;2023-06-24T15:55:54;97909.53;;;26.91;31.56
75008;BME280;63554;48.940;12.050;2023-06-24T15:59:57;97907.75;;;26.44;32.70
75008;BME280;63554;48.940;12.050;2023-06-24T16:04:00;97909.81;;;26.67;33.17
75008;BME280;63554;48.940;12.050;2023-06-24T16:08:03;97909.28;;;27.37;32.45
75008;BME280;63554;48.940;12.050;2023-06-24T16:12:07;97903.19;;;27.27;31.19
75008;BME280;63554;48.940;12.050;2023-06-24T16:16:10;97904.75;;;27.41;31.15
75008;BME280;63554;48.940;12.050;2023-06-24T16:20:13;97908.69;;;27.40;30.42
75008;BME280;63554;48.940;12.050;2023-06-24T16:24:18;97898.38;;;27.05;33.50
75008;BME280;63554;48.940;12.050;2023-06-24T16:28:22;97895.84;;;27.31;30.14
75008;BME280;63554;48.940;12.050;2023-06-24T16:32:25;97894.09;;;26.98;31.26
75008;BME280;63554;48.940;12.050;2023-06-24T16:36:28;97902.53;;;26.15;31.89
75008;BME280;63554;48.940;12.050;2023-06-24T16:40:30;97898.00;;;26.06;32.08
75008;BME280;63554;48.940;12.050;2023-06-24T16:44:35;97891.81;;;26.22;32.89
75008;BME280;63554;48.940;12.050;2023-06-24T16:48:38;97892.91;;;26.77;31.20
75008;BME280;63554;48.940;12.050;2023-06-24T16:52:41;97891.78;;;26.78;29.23
75008;BME280;63554;48.940;12.050;2023-06-24T16:56:44;97892.81;;;27.05;30.41
75008;BME280;63554;48.940;12.050;2023-06-24T17:00:48;97889.13;;;27.32;28.20
75008;BME280;63554;48.940;12.050;2023-06-24T17:04:50;97896.41;;;27.41;28.28
75008;BME280;63554;48.940;12.050;2023-06-24T17:08:53;97894.03;;;27.57;28.17
75008;BME280;63554;48.940;12.050;2023-06-24T17:12:58;97882.28;;;27.60;27.49
75008;BME280;63554;48.940;12.050;2023-06-24T17:17:02;97880.41;;;27.70;28.32
75008;BME280;63554;48.940;12.050;2023-06-24T17:21:05;97875.97;;;27.46;27.42
75008;BME280;63554;48.940;12.050;2023-06-24T17:25:08;97879.81;;;27.14;29.32
75008;BME280;63554;48.940;12.050;2023-06-24T17:29:11;97873.78;;;26.75;29.17
75008;BME280;63554;48.940;12.050;2023-06-24T17:33:17;97876.59;;;26.61;28.87
75008;BME280;63554;48.940;12.050;2023-06-24T17:37:20;97869.41;;;26.60;30.24
75008;BME280;63554;48.940;12.050;2023-06-24T17:41:23;97869.00;;;26.39;29.35
75008;BME280;63554;48.940;12.050;2023-06-24T17:45:26;97868.28;;;26.34;31.42
75008;BME280;63554;48.940;12.050;2023-06-24T17:49:33;97865.31;;;26.16;33.50
75008;BME280;63554;48.940;12.050;2023-06-24T17:53:35;97864.59;;;25.97;33.92
75008;BME280;63554;48.940;12.050;2023-06-24T17:57:39;97865.09;;;25.99;35.47
75008;BME280;63554;48.940;12.050;2023-06-24T18:01:41;97865.47;;;25.64;37.39
75008;BME280;63554;48.940;12.050;2023-06-24T18:05:46;97863.53;;;25.32;38.47
75008;BME280;63554;48.940;12.050;2023-06-24T18:09:48;97866.75;;;24.88;38.25
75008;BME280;63554;48.940;12.050;2023-06-24T18:13:51;97865.19;;;24.62;39.15
75008;BME280;63554;48.940;12.050;2023-06-24T18:17:54;97862.94;;;24.40;38.91
75008;BME280;63554;48.940;12.050;2023-06-24T18:21:58;97870.03;;;24.27;38.25
75008;BME280;63554;48.940;12.050;2023-06-24T18:26:03;97872.47;;;24.10;40.29
75008;BME280;63554;48.940;12.050;2023-06-24T18:30:06;97868.50;;;23.97;41.03
75008;BME280;63554;48.940;12.050;2023-06-24T18:34:09;97857.38;;;23.78;42.18
75008;BME280;63554;48.940;12.050;2023-06-24T18:38:14;97863.56;;;23.65;43.46
75008;BME280;63554;48.940;12.050;2023-06-24T18:42:16;97854.25;;;23.56;43.90
75008;BME280;63554;48.940;12.050;2023-06-24T18:46:19;97853.81;;;23.43;44.15
75008;BME280;63554;48.940;12.050;2023-06-24T18:50:22;97851.19;;;23.28;44.27
75008;BME280;63554;48.940;12.050;2023-06-24T18:54:26;97851.31;;;23.13;44.82
75008;BME280;63554;48.940;12.050;2023-06-24T18:58:29;97867.16;;;22.97;44.91
75008;BME280;63554;48.940;12.050;2023-06-24T19:02:31;97868.16;;;22.77;45.88
75008;BME280;63554;48.940;12.050;2023-06-24T19:06:34;97864.13;;;22.59;46.15
75008;BME280;63554;48.940;12.050;2023-06-24T19:10:38;97862.84;;;22.41;46.72
75008;BME280;63554;48.940;12.050;2023-06-24T19:14:41;97865.38;;;22.22;46.33
75008;BME280;63554;48.940;12.050;2023-06-24T19:18:45;97864.38;;;22.07;46.72
75008;BME280;63554;48.940;12.050;2023-06-24T19:22:48;97863.28;;;21.98;47.13
75008;BME280;63554;48.940;12.050;2023-06-24T19:26:52;97859.72;;;21.87;47.31
75008;BME280;63554;48.940;12.050;2023-06-24T19:30:55;97868.84;;;21.78;47.13
75008;BME280;63554;48.940;12.050;2023-06-24T19:34:57;97874.38;;;21.67;47.67
75008;BME280;63554;48.940;12.050;2023-06-24T19:39:01;97879.94;;;21.52;46.81
75008;BME280;63554;48.940;12.050;2023-06-24T19:43:06;97884.06;;;21.24;47.83
75008;BME280;63554;48.940;12.050;2023-06-24T19:47:09;97887.09;;;21.07;48.83
75008;BME280;63554;48.940;12.050;2023-06-24T19:51:12;97892.84;;;20.74;49.66
75008;BME280;63554;48.940;12.050;2023-06-24T19:55:15;97889.44;;;20.52;50.81
75008;BME280;63554;48.940;12.050;2023-06-24T19:59:19;97893.78;;;20.27;50.92
75008;BME280;63554;48.940;12.050;2023-06-24T20:03:22;97895.06;;;20.04;51.45
75008;BME280;63554;48.940;12.050;2023-06-24T20:07:25;97888.91;;;19.87;52.77
75008;BME280;63554;48.940;12.050;2023-06-24T20:11:28;97899.88;;;19.77;53.95
75008;BME280;63554;48.940;12.050;2023-06-24T20:15:32;97896.72;;;19.63;53.41
75008;BME280;63554;48.940;12.050;2023-06-24T20:19:35;97895.88;;;19.57;54.18
75008;BME280;63554;48.940;12.050;2023-06-24T20:23:38;97893.31;;;19.45;54.31
75008;BME280;63554;48.940;12.050;2023-06-24T20:27:40;97893.25;;;19.35;55.32
75008;BME280;63554;48.940;12.050;2023-06-24T20:31:44;97884.66;;;19.26;56.48
75008;BME280;63554;48.940;12.050;2023-06-24T20:35:47;97879.09;;;19.16;56.09
75008;BME280;63554;48.940;12.050;2023-06-24T20:39:50;97891.91;;;19.05;55.16
75008;BME280;63554;48.940;12.050;2023-06-24T20:43:53;97891.50;;;18.91;55.01
75008;BME280;63554;48.940;12.050;2023-06-24T20:47:57;97890.50;;;18.75;56.59
75008;BME280;63554;48.940;12.050;2023-06-24T20:52:00;97888.06;;;18.52;56.82
75008;BME280;63554;48.940;12.050;2023-06-24T20:56:04;97885.44;;;18.35;57.56
75008;BME280;63554;48.940;12.050;2023-06-24T21:00:07;97891.88;;;18.24;58.74
75008;BME280;63554;48.940;12.050;2023-06-24T21:04:11;97899.78;;;18.20;59.53
75008;BME280;63554;48.940;12.050;2023-06-24T21:08:15;97901.81;;;18.08;59.87
75008;BME280;63554;48.940;12.050;2023-06-24T21:12:22;97890.66;;;17.92;60.08
75008;BME280;63554;48.940;12.050;2023-06-24T21:16:24;97896.81;;;17.83;60.69